Time;durP1;ratioP1;P1;durP2;ratioP2;P2;SDS_P1;SDS_P2;PMS_P1;PMS_P2;Temp;Humidity;BMP_temperature;BMP_pressure;BME280_temperature;BME280_humidity;BME280_pressure;Samples;Min_cycle;Max_cycle;Signal;HPM_P1;HPM_P2
2021/07/22 00:00:10;;;;;;;10.47;8.43;;;;;;;;;;5073073;28;20465;-74
2021/07/22 00:02:37;;;;;;;11.83;9.30;;;;;;;;;;5072965;28;20440;-75
2021/07/22 00:05:05;;;;;;;10.47;9.23;;;;;;;;;;5072678;28;20440;-73
2021/07/22 00:07:31;;;;;;;9.27;8.37;;;;;;;;;;5072658;28;20462;-72
2021/07/22 00:09:57;;;;;;;9.27;8.00;;;;;;;;;;5073051;28;20838;-74
2021/07/22 00:12:23;;;;;;;10.07;8.87;;;;;;;;;;5072875;28;20437;-75
2021/07/22 00:14:49;;;;;;;9.50;8.00;;;;;;;;;;5072876;28;20421;-72
2021/07/22 00:17:15;;;;;;;9.37;8.37;;;;;;;;;;5072402;28;20460;-72
2021/07/22 00:19:41;;;;;;;13.07;9.20;;;;;;;;;;5072574;28;20546;-73
2021/07/22 00:22:07;;;;;;;11.73;8.43;;;;;;;;;;5072736;28;20457;-73
2021/07/22 00:24:35;;;;;;;10.87;9.00;;;;;;;;;;5073207;28;20413;-72
2021/07/22 00:27:01;;;;;;;8.33;7.53;;;;;;;;;;5072872;28;20403;-74
2021/07/22 00:29:30;;;;;;;9.83;7.93;;;;;;;;;;5072741;28;20490;-74
2021/07/22 00:31:57;;;;;;;8.00;7.07;;;;;;;;;;5072651;28;20448;-72
2021/07/22 00:34:23;;;;;;;10.17;7.80;;;;;;;;;;5072580;28;20532;-73
2021/07/22 00:36:49;;;;;;;8.10;7.30;;;;;;;;;;5071046;28;20432;-72
2021/07/22 00:39:16;;;;;;;9.70;7.27;;;;;;;;;;5072435;28;20466;-72
2021/07/22 00:41:42;;;;;;;8.47;7.60;;;;;;;;;;5072674;28;20437;-73
2021/07/22 00:44:08;;;;;;;9.03;7.70;;;;;;;;;;5072264;28;20475;-73
2021/07/22 00:46:34;;;;;;;9.17;7.87;;;;;;;;;;5078156;28;20798;-73
2021/07/22 00:49:00;;;;;;;8.73;7.37;;;;;;;;;;5076635;28;20757;-75
2021/07/22 00:51:26;;;;;;;10.43;8.07;;;;;;;;;;5076521;28;20453;-73
2021/07/22 00:53:52;;;;;;;10.10;7.27;;;;;;;;;;5075077;28;21007;-73
2021/07/22 00:56:19;;;;;;;7.50;6.60;;;;;;;;;;5076408;28;20422;-73
2021/07/22 00:58:45;;;;;;;10.40;7.37;;;;;;;;;;5075988;28;20986;-73
2021/07/22 01:01:12;;;;;;;8.57;7.20;;;;;;;;;;5076644;28;20409;-75
2021/07/22 01:03:39;;;;;;;7.07;6.37;;;;;;;;;;5076604;28;20569;-75
2021/07/22 01:06:05;;;;;;;8.33;7.20;;;;;;;;;;5076277;28;20894;-75
2021/07/22 01:08:31;;;;;;;9.03;6.83;;;;;;;;;;5075702;28;20428;-72
2021/07/22 01:10:57;;;;;;;9.90;7.70;;;;;;;;;;5076292;28;20471;-75
2021/07/22 01:13:23;;;;;;;7.70;6.90;;;;;;;;;;5076091;28;20445;-73
2021/07/22 01:15:49;;;;;;;8.47;6.67;;;;;;;;;;5076102;28;20416;-74
2021/07/22 01:18:15;;;;;;;9.70;7.47;;;;;;;;;;5075132;28;20522;-72
2021/07/22 01:20:41;;;;;;;8.33;7.53;;;;;;;;;;5075982;28;20770;-74
2021/07/22 01:23:07;;;;;;;9.93;7.47;;;;;;;;;;5076004;28;20526;-72
2021/07/22 01:25:33;;;;;;;11.23;8.00;;;;;;;;;;5076026;28;20444;-70
2021/07/22 01:27:59;;;;;;;8.83;7.77;;;;;;;;;;5075446;28;20435;-72
2021/07/22 01:30:25;;;;;;;9.30;7.37;;;;;;;;;;5075851;28;20408;-72
2021/07/22 01:32:54;;;;;;;9.13;7.23;;;;;;;;;;5075640;28;20427;-72
2021/07/22 01:35:20;;;;;;;7.80;6.97;;;;;;;;;;5076078;28;20412;-71
2021/07/22 01:37:49;;;;;;;12.20;7.20;;;;;;;;;;5075815;28;20408;-73
2021/07/22 01:40:15;;;;;;;8.57;7.67;;;;;;;;;;5075475;28;20417;-71
2021/07/22 01:42:42;;;;;;;9.03;7.03;;;;;;;;;;5074744;28;20447;-72
2021/07/22 01:45:08;;;;;;;9.40;7.47;;;;;;;;;;5075491;28;20482;-75
2021/07/22 01:47:35;;;;;;;10.37;7.83;;;;;;;;;;5077777;28;20411;-73
2021/07/22 01:50:01;;;;;;;8.33;7.00;;;;;;;;;;5075432;28;20437;-73
2021/07/22 01:52:27;;;;;;;8.33;7.43;;;;;;;;;;5075648;28;20429;-72
2021/07/22 01:54:53;;;;;;;8.43;7.60;;;;;;;;;;5075024;28;20414;-74
2021/07/22 01:57:19;;;;;;;9.93;6.70;;;;;;;;;;5074671;28;20751;-75
2021/07/22 01:59:45;;;;;;;9.47;7.33;;;;;;;;;;5074926;28;20464;-71
2021/07/22 02:02:11;;;;;;;7.50;6.20;;;;;;;;;;5075339;28;20427;-74
2021/07/22 02:04:38;;;;;;;8.40;7.50;;;;;;;;;;5075016;28;20413;-73
2021/07/22 02:07:04;;;;;;;9.57;7.13;;;;;;;;;;5075037;28;20423;-73
2021/07/22 02:09:30;;;;;;;7.90;7.07;;;;;;;;;;5075069;28;20413;-71
2021/07/22 02:11:57;;;;;;;8.37;6.60;;;;;;;;;;5075295;28;20431;-75
2021/07/22 02:14:24;;;;;;;9.53;7.30;;;;;;;;;;5074946;28;20751;-71
2021/07/22 02:16:50;;;;;;;7.90;7.10;;;;;;;;;;5075001;28;20846;-75
2021/07/22 02:19:16;;;;;;;7.27;6.57;;;;;;;;;;5075178;28;20546;-72
2021/07/22 02:21:42;;;;;;;7.30;6.60;;;;;;;;;;5074964;28;20425;-73
2021/07/22 02:24:09;;;;;;;8.10;6.90;;;;;;;;;;5074954;28;20426;-73
2021/07/22 02:26:35;;;;;;;7.70;6.77;;;;;;;;;;5074422;28;20465;-74
2021/07/22 02:29:01;;;;;;;8.00;7.17;;;;;;;;;;5074567;28;20405;-75
2021/07/22 02:31:28;;;;;;;9.20;7.07;;;;;;;;;;5074912;28;20468;-71
2021/07/22 02:33:54;;;;;;;8.63;6.73;;;;;;;;;;5074774;28;20471;-71
2021/07/22 02:36:20;;;;;;;7.57;6.83;;;;;;;;;;5074841;28;20794;-73
2021/07/22 02:38:46;;;;;;;7.60;6.80;;;;;;;;;;5074078;28;20874;-74
2021/07/22 02:41:12;;;;;;;6.73;6.03;;;;;;;;;;5074533;28;20471;-71
2021/07/22 02:43:38;;;;;;;9.10;7.17;;;;;;;;;;5074740;28;20422;-74
2021/07/22 02:46:07;;;;;;;11.43;7.73;;;;;;;;;;5077049;28;20953;-73
2021/07/22 02:48:34;;;;;;;9.93;7.40;;;;;;;;;;5074065;28;20417;-74
2021/07/22 02:51:04;;;;;;;8.77;6.60;;;;;;;;;;5074418;28;20425;-74
2021/07/22 02:53:30;;;;;;;7.20;6.30;;;;;;;;;;5074490;28;20416;-71
2021/07/22 02:55:56;;;;;;;6.90;6.17;;;;;;;;;;5074305;28;20432;-74
2021/07/22 02:58:22;;;;;;;7.43;6.20;;;;;;;;;;5073666;28;20552;-75
2021/07/22 03:00:49;;;;;;;6.97;6.00;;;;;;;;;;5074295;28;20420;-73
2021/07/22 03:03:14;;;;;;;8.27;6.20;;;;;;;;;;5074127;28;20866;-72
2021/07/22 03:05:41;;;;;;;7.17;6.40;;;;;;;;;;5073798;28;20464;-70
2021/07/22 03:08:07;;;;;;;7.00;6.30;;;;;;;;;;5073737;28;20892;-74
2021/07/22 03:10:33;;;;;;;7.70;6.43;;;;;;;;;;5073035;28;20409;-75
2021/07/22 03:12:59;;;;;;;8.27;6.50;;;;;;;;;;5073946;28;20431;-73
2021/07/22 03:15:25;;;;;;;7.50;6.40;;;;;;;;;;5074001;28;20837;-74
2021/07/22 03:17:51;;;;;;;7.93;6.40;;;;;;;;;;5074021;28;20425;-74
2021/07/22 03:20:17;;;;;;;7.73;6.60;;;;;;;;;;5073966;28;20460;-75
2021/07/22 03:22:43;;;;;;;6.87;6.03;;;;;;;;;;5073937;28;20842;-74
2021/07/22 03:25:10;;;;;;;8.63;7.00;;;;;;;;;;5073552;28;20409;-72
2021/07/22 03:27:36;;;;;;;7.70;6.90;;;;;;;;;;5073528;28;20412;-75
2021/07/22 03:30:02;;;;;;;9.90;6.77;;;;;;;;;;5073562;28;20420;-74
2021/07/22 03:32:28;;;;;;;6.90;5.90;;;;;;;;;;5073453;28;20434;-73
2021/07/22 03:34:54;;;;;;;7.80;6.37;;;;;;;;;;5073635;28;20419;-72
2021/07/22 03:37:19;;;;;;;7.67;6.83;;;;;;;;;;5073141;28;20417;-74
2021/07/22 03:39:45;;;;;;;7.60;6.33;;;;;;;;;;5073383;28;20456;-75
2021/07/22 03:42:12;;;;;;;7.27;6.57;;;;;;;;;;5073626;28;20439;-74
2021/07/22 03:44:38;;;;;;;7.37;6.57;;;;;;;;;;5073455;28;20489;-72
2021/07/22 03:47:04;;;;;;;7.60;6.80;;;;;;;;;;5075845;28;20424;-72
2021/07/22 03:49:30;;;;;;;7.80;6.20;;;;;;;;;;5073288;28;20767;-72
2021/07/22 03:51:57;;;;;;;7.80;6.60;;;;;;;;;;5073586;28;20443;-74
2021/07/22 03:54:23;;;;;;;7.37;6.33;;;;;;;;;;5073226;28;20779;-72
2021/07/22 03:56:49;;;;;;;9.47;6.53;;;;;;;;;;5072813;28;20414;-74
2021/07/22 03:59:15;;;;;;;9.43;7.00;;;;;;;;;;5073272;28;20811;-72
2021/07/22 04:01:41;;;;;;;8.20;6.90;;;;;;;;;;5073294;28;20433;-74
2021/07/22 04:04:08;;;;;;;7.07;6.40;;;;;;;;;;5073210;28;20420;-74
2021/07/22 04:06:35;;;;;;;10.57;6.73;;;;;;;;;;5085662;28;20510;-72
2021/07/22 04:09:01;;;;;;;7.30;6.33;;;;;;;;;;5093348;28;20464;-72
2021/07/22 04:11:27;;;;;;;8.70;6.83;;;;;;;;;;5093401;28;20464;-70
2021/07/22 04:13:53;;;;;;;7.57;6.83;;;;;;;;;;5093179;28;20456;-74
2021/07/22 04:16:19;;;;;;;7.53;6.47;;;;;;;;;;5093357;28;20893;-73
2021/07/22 04:18:45;;;;;;;8.93;6.30;;;;;;;;;;5092926;28;20456;-72
2021/07/22 04:21:11;;;;;;;7.43;6.40;;;;;;;;;;5096191;28;20920;-71
2021/07/22 04:23:37;;;;;;;10.93;6.90;;;;;;;;;;5079434;28;20420;-75
2021/07/22 04:26:03;;;;;;;7.50;6.70;;;;;;;;;;5079590;28;20414;-72
2021/07/22 04:28:29;;;;;;;7.67;6.80;;;;;;;;;;5079228;28;20405;-75
2021/07/22 04:30:55;;;;;;;7.67;6.63;;;;;;;;;;5079630;28;20428;-72
2021/07/22 04:33:21;;;;;;;7.70;6.90;;;;;;;;;;5079430;28;20502;-72
2021/07/22 04:35:47;;;;;;;8.77;6.90;;;;;;;;;;5079615;28;20418;-73
2021/07/22 04:38:13;;;;;;;10.63;7.30;;;;;;;;;;5079286;28;20418;-72
2021/07/22 04:40:39;;;;;;;9.10;6.67;;;;;;;;;;5079371;28;20409;-76
2021/07/22 04:43:05;;;;;;;7.03;6.33;;;;;;;;;;5079667;28;20489;-71
2021/07/22 04:45:31;;;;;;;7.80;6.63;;;;;;;;;;5079368;28;20413;-72
2021/07/22 04:47:57;;;;;;;8.80;6.67;;;;;;;;;;5078840;28;20413;-73
2021/07/22 04:50:23;;;;;;;9.87;7.00;;;;;;;;;;5079387;28;20903;-75
2021/07/22 04:52:49;;;;;;;7.10;5.97;;;;;;;;;;5079360;28;20440;-72
2021/07/22 04:55:16;;;;;;;5.87;5.27;;;;;;;;;;5079186;28;20925;-75
2021/07/22 04:57:42;;;;;;;7.00;6.30;;;;;;;;;;5073172;28;20929;-74
2021/07/22 05:00:08;;;;;;;6.70;6.03;;;;;;;;;;5079219;28;20461;-71
2021/07/22 05:02:34;;;;;;;10.50;6.50;;;;;;;;;;5079127;28;20435;-72
2021/07/22 05:05:00;;;;;;;8.87;5.70;;;;;;;;;;5079055;28;20498;-75
2021/07/22 05:07:26;;;;;;;8.30;5.97;;;;;;;;;;5078864;28;20409;-71
2021/07/22 05:09:52;;;;;;;6.30;5.30;;;;;;;;;;5079431;28;20807;-73
2021/07/22 05:12:18;;;;;;;8.00;7.13;;;;;;;;;;5079308;28;20441;-71
2021/07/22 05:14:44;;;;;;;7.20;6.03;;;;;;;;;;5079313;28;20459;-73
2021/07/22 05:17:10;;;;;;;7.63;6.23;;;;;;;;;;5078882;28;20810;-74
2021/07/22 05:19:36;;;;;;;6.47;5.77;;;;;;;;;;5079160;28;20525;-74
2021/07/22 05:22:03;;;;;;;8.93;5.57;;;;;;;;;;5078921;28;20445;-72
2021/07/22 05:24:29;;;;;;;7.33;5.70;;;;;;;;;;5079126;28;20417;-75
2021/07/22 05:26:55;;;;;;;6.80;5.80;;;;;;;;;;5078933;28;20849;-75
2021/07/22 05:29:21;;;;;;;6.70;4.93;;;;;;;;;;5079087;28;20457;-73
2021/07/22 05:31:47;;;;;;;7.17;5.57;;;;;;;;;;5084712;28;20434;-74
2021/07/22 05:34:13;;;;;;;6.90;5.07;;;;;;;;;;5074982;28;20783;-72
2021/07/22 05:36:40;;;;;;;5.93;5.33;;;;;;;;;;5075178;28;20489;-73
2021/07/22 05:39:06;;;;;;;6.67;5.57;;;;;;;;;;5075613;28;20474;-72
2021/07/22 05:41:32;;;;;;;5.90;5.30;;;;;;;;;;5075369;28;20446;-71
2021/07/22 05:43:58;;;;;;;6.30;5.40;;;;;;;;;;5075634;28;20481;-74
2021/07/22 05:46:24;;;;;;;6.03;5.00;;;;;;;;;;5075121;28;20440;-72
2021/07/22 05:48:50;;;;;;;6.37;5.40;;;;;;;;;;5075145;28;20553;-72
2021/07/22 05:51:17;;;;;;;6.10;5.50;;;;;;;;;;5075388;28;20476;-74
2021/07/22 05:53:43;;;;;;;5.30;4.80;;;;;;;;;;5069445;28;20803;-75
2021/07/22 05:56:16;;;;;;;5.20;4.70;;;;;;;;;;5075248;28;20751;-74
2021/07/22 05:58:42;;;;;;;5.27;4.77;;;;;;;;;;5074864;28;20462;-73
2021/07/22 06:01:08;;;;;;;6.63;5.33;;;;;;;;;;5075122;28;20904;-74
2021/07/22 06:03:34;;;;;;;5.83;5.00;;;;;;;;;;5075411;28;20407;-73
2021/07/22 06:06:00;;;;;;;6.80;5.50;;;;;;;;;;5074996;28;20481;-74
2021/07/22 06:08:26;;;;;;;6.13;5.10;;;;;;;;;;5074859;28;20443;-73
2021/07/22 06:10:52;;;;;;;5.47;5.00;;;;;;;;;;5075326;28;20422;-72
2021/07/22 06:13:18;;;;;;;5.20;4.80;;;;;;;;;;5075135;28;20440;-73
2021/07/22 06:15:44;;;;;;;6.17;4.80;;;;;;;;;;5074953;28;20425;-72
2021/07/22 06:18:10;;;;;;;7.73;5.60;;;;;;;;;;5074599;28;20414;-74
2021/07/22 06:20:39;;;;;;;5.57;4.37;;;;;;;;;;5074766;28;20449;-73
2021/07/22 06:23:05;;;;;;;6.40;5.10;;;;;;;;;;5074993;28;20544;-72
2021/07/22 06:25:31;;;;;;;6.10;5.50;;;;;;;;;;5075072;28;20410;-72
2021/07/22 06:27:57;;;;;;;5.60;4.57;;;;;;;;;;5074401;28;20410;-74
2021/07/22 06:30:24;;;;;;;5.97;5.20;;;;;;;;;;5080689;28;20424;-73
2021/07/22 06:32:50;;;;;;;5.77;5.27;;;;;;;;;;5074378;28;20435;-73
2021/07/22 06:35:16;;;;;;;6.80;5.20;;;;;;;;;;5074788;28;20417;-71
2021/07/22 06:37:43;;;;;;;5.10;4.70;;;;;;;;;;5074488;28;20840;-75
2021/07/22 06:40:09;;;;;;;8.40;5.60;;;;;;;;;;5074490;28;20474;-71
2021/07/22 06:42:35;;;;;;;5.83;5.23;;;;;;;;;;5074219;28;20434;-73
2021/07/22 06:45:01;;;;;;;5.90;5.30;;;;;;;;;;5074255;28;20413;-74
2021/07/22 06:47:27;;;;;;;6.70;6.20;;;;;;;;;;5073700;28;20426;-74
2021/07/22 06:49:53;;;;;;;6.20;5.60;;;;;;;;;;5072997;28;20430;-75
2021/07/22 06:52:19;;;;;;;7.97;5.50;;;;;;;;;;5071582;28;20548;-73
2021/07/22 06:54:45;;;;;;;9.23;5.23;;;;;;;;;;5064044;28;20440;-74
2021/07/22 06:57:11;;;;;;;5.50;5.00;;;;;;;;;;5071211;28;20422;-73
2021/07/22 06:59:37;;;;;;;7.10;5.60;;;;;;;;;;5074631;28;20461;-74
2021/07/22 07:02:03;;;;;;;5.87;5.10;;;;;;;;;;5070033;28;20600;-72
2021/07/22 07:04:29;;;;;;;5.83;4.90;;;;;;;;;;5069964;28;20415;-75
2021/07/22 07:06:55;;;;;;;5.50;4.40;;;;;;;;;;5069752;28;20592;-75
2021/07/22 07:09:21;;;;;;;5.13;4.63;;;;;;;;;;5070194;28;20461;-75
2021/07/22 07:11:47;;;;;;;5.83;5.33;;;;;;;;;;5073569;28;20431;-75
2021/07/22 07:14:13;;;;;;;7.80;4.93;;;;;;;;;;5069986;28;20416;-73
2021/07/22 07:16:40;;;;;;;5.03;4.50;;;;;;;;;;5069702;28;20494;-72
2021/07/22 07:19:07;;;;;;;5.00;4.30;;;;;;;;;;5069609;28;20537;-73
2021/07/22 07:21:36;;;;;;;5.50;4.93;;;;;;;;;;5069614;28;20446;-75
2021/07/22 07:24:02;;;;;;;5.60;5.10;;;;;;;;;;5069857;28;20464;-74
2021/07/22 07:26:28;;;;;;;5.10;4.57;;;;;;;;;;5069766;28;20442;-74
2021/07/22 07:28:54;;;;;;;5.03;4.50;;;;;;;;;;5069157;28;20443;-74
2021/07/22 07:31:23;;;;;;;5.10;4.43;;;;;;;;;;5076078;28;20428;-73
2021/07/22 07:33:50;;;;;;;6.70;5.00;;;;;;;;;;5069580;28;20827;-73
2021/07/22 07:36:16;;;;;;;5.20;4.70;;;;;;;;;;5068943;28;20416;-74
2021/07/22 07:38:42;;;;;;;7.70;5.20;;;;;;;;;;5067892;28;20458;-72
2021/07/22 07:41:08;;;;;;;5.20;4.80;;;;;;;;;;5069140;28;20416;-72
2021/07/22 07:43:34;;;;;;;5.13;4.73;;;;;;;;;;5069249;28;20414;-73
2021/07/22 07:46:00;;;;;;;4.80;4.40;;;;;;;;;;5069322;28;20426;-74
2021/07/22 07:48:26;;;;;;;5.70;5.20;;;;;;;;;;5068809;28;20447;-71
2021/07/22 07:50:52;;;;;;;5.70;5.13;;;;;;;;;;5067063;28;20440;-72
2021/07/22 07:53:19;;;;;;;4.60;4.10;;;;;;;;;;5066208;28;20438;-74
2021/07/22 07:55:45;;;;;;;5.23;4.33;;;;;;;;;;5068827;28;20424;-73
2021/07/22 07:58:11;;;;;;;5.77;4.23;;;;;;;;;;5068703;28;20422;-72
2021/07/22 08:00:38;;;;;;;6.53;4.80;;;;;;;;;;5069314;28;20414;-72
2021/07/22 08:03:04;;;;;;;5.10;4.30;;;;;;;;;;5069310;28;20429;-72
2021/07/22 08:05:31;;;;;;;5.40;4.80;;;;;;;;;;5069238;28;20462;-74
2021/07/22 08:07:57;;;;;;;5.30;4.80;;;;;;;;;;5068820;28;20423;-70
2021/07/22 08:10:23;;;;;;;5.30;4.87;;;;;;;;;;5069420;28;20515;-73
2021/07/22 08:12:49;;;;;;;5.27;4.57;;;;;;;;;;5068778;28;20434;-71
2021/07/22 08:15:15;;;;;;;4.73;4.33;;;;;;;;;;5069223;28;20961;-74
2021/07/22 08:17:41;;;;;;;4.80;4.40;;;;;;;;;;5069040;28;20418;-72
2021/07/22 08:20:08;;;;;;;5.83;4.03;;;;;;;;;;5069233;28;20520;-73
2021/07/22 08:22:35;;;;;;;5.33;4.83;;;;;;;;;;5069123;28;20437;-74
2021/07/22 08:25:01;;;;;;;5.60;5.10;;;;;;;;;;5068890;28;20411;-75
2021/07/22 08:27:31;;;;;;;5.00;4.50;;;;;;;;;;5068533;28;20421;-75
2021/07/22 08:29:57;;;;;;;4.60;4.20;;;;;;;;;;5072979;28;20816;-76
2021/07/22 08:32:24;;;;;;;4.97;4.47;;;;;;;;;;5070123;28;20450;-74
2021/07/22 08:34:50;;;;;;;5.33;4.80;;;;;;;;;;5068938;28;20421;-75
2021/07/22 08:37:16;;;;;;;5.00;4.50;;;;;;;;;;5068636;28;20952;-73
2021/07/22 08:39:43;;;;;;;5.93;5.33;;;;;;;;;;5068685;28;20529;-75
2021/07/22 08:42:10;;;;;;;5.70;5.00;;;;;;;;;;5068836;28;20438;-75
2021/07/22 08:44:36;;;;;;;5.77;5.17;;;;;;;;;;5068880;28;20460;-74
2021/07/22 08:47:02;;;;;;;5.60;5.10;;;;;;;;;;5064319;28;20429;-73
2021/07/22 08:49:29;;;;;;;5.00;4.30;;;;;;;;;;5068500;28;20506;-74
2021/07/22 08:51:56;;;;;;;5.40;4.90;;;;;;;;;;5068824;28;20474;-73
2021/07/22 08:54:22;;;;;;;5.60;4.37;;;;;;;;;;5068693;28;20552;-73
2021/07/22 08:56:48;;;;;;;5.57;5.07;;;;;;;;;;5068421;28;20506;-72
2021/07/22 08:59:15;;;;;;;6.63;4.90;;;;;;;;;;5068372;28;20502;-73
2021/07/22 09:01:43;;;;;;;6.90;5.50;;;;;;;;;;5068723;28;20434;-72
2021/07/22 09:04:09;;;;;;;5.23;4.67;;;;;;;;;;5068757;28;20410;-70
2021/07/22 09:06:35;;;;;;;4.63;4.23;;;;;;;;;;5068475;28;21022;-73
2021/07/22 09:09:12;;;;;;;5.23;4.60;;;;;;;;;;5071293;28;20409;-74
2021/07/22 09:11:52;;;;;;;5.20;4.70;;;;;;;;;;5072415;28;20438;-73
2021/07/22 09:14:18;;;;;;;7.17;5.47;;;;;;;;;;5070897;28;20520;-73
2021/07/22 09:16:44;;;;;;;4.63;4.23;;;;;;;;;;5071903;28;20911;-73
2021/07/22 09:19:29;;;;;;;5.07;4.57;;;;;;;;;;5072015;28;20453;-71
2021/07/22 09:21:55;;;;;;;6.03;4.47;;;;;;;;;;5072111;28;20425;-72
2021/07/22 09:24:21;;;;;;;5.00;4.60;;;;;;;;;;5071964;28;20930;-72
2021/07/22 09:26:50;;;;;;;5.00;4.50;;;;;;;;;;5071924;28;20434;-73
2021/07/22 09:29:16;;;;;;;6.80;4.50;;;;;;;;;;5071786;28;20756;-73
2021/07/22 09:31:43;;;;;;;4.80;4.37;;;;;;;;;;5076754;28;20835;-73
2021/07/22 09:34:26;;;;;;;4.40;4.00;;;;;;;;;;5072004;28;20413;-72
2021/07/22 09:36:52;;;;;;;5.20;4.70;;;;;;;;;;5071794;28;20425;-75
2021/07/22 09:39:20;;;;;;;5.63;5.13;;;;;;;;;;5072129;28;20799;-72
2021/07/22 09:41:47;;;;;;;6.07;5.17;;;;;;;;;;5072019;28;20431;-75
2021/07/22 09:44:32;;;;;;;4.73;4.33;;;;;;;;;;5071996;28;20406;-74
2021/07/22 09:47:00;;;;;;;6.87;5.07;;;;;;;;;;5069348;28;20414;-74
2021/07/22 09:49:33;;;;;;;5.30;4.30;;;;;;;;;;5071137;28;20421;-74
2021/07/22 09:52:02;;;;;;;5.07;4.57;;;;;;;;;;5070816;28;20453;-73
2021/07/22 09:54:37;;;;;;;5.70;5.10;;;;;;;;;;5071674;28;20454;-74
2021/07/22 09:57:12;;;;;;;5.60;5.10;;;;;;;;;;5071257;28;20414;-72
2021/07/22 09:59:38;;;;;;;5.43;4.93;;;;;;;;;;5071047;28;20573;-71
2021/07/22 10:02:05;;;;;;;6.43;5.30;;;;;;;;;;5071511;28;20513;-74
2021/07/22 10:04:31;;;;;;;4.90;4.47;;;;;;;;;;5071172;28;20901;-74
2021/07/22 10:07:00;;;;;;;5.90;5.30;;;;;;;;;;5070979;28;20411;-75
2021/07/22 10:09:28;;;;;;;5.10;4.50;;;;;;;;;;5070808;28;20717;-74
2021/07/22 10:11:55;;;;;;;4.67;4.27;;;;;;;;;;5071518;28;20851;-74
2021/07/22 10:14:21;;;;;;;5.07;4.63;;;;;;;;;;5070998;28;20792;-72
2021/07/22 10:16:49;;;;;;;5.37;4.83;;;;;;;;;;5070900;28;20415;-75
2021/07/22 10:19:16;;;;;;;5.30;4.80;;;;;;;;;;5070382;28;20468;-73
2021/07/22 10:21:42;;;;;;;5.23;4.73;;;;;;;;;;5070879;28;20515;-71
2021/07/22 10:24:09;;;;;;;5.47;4.70;;;;;;;;;;5070817;28;21236;-74
2021/07/22 10:26:40;;;;;;;5.67;5.23;;;;;;;;;;5070780;28;20445;-73
2021/07/22 10:29:06;;;;;;;5.20;4.70;;;;;;;;;;5070971;28;20510;-73
2021/07/22 10:31:40;;;;;;;5.20;4.40;;;;;;;;;;5076347;28;20534;-71
2021/07/22 10:34:07;;;;;;;5.23;4.73;;;;;;;;;;5070907;28;20414;-74
2021/07/22 10:36:34;;;;;;;4.90;4.40;;;;;;;;;;5070499;28;20775;-72
2021/07/22 10:39:00;;;;;;;4.30;4.00;;;;;;;;;;5070355;28;20557;-73
2021/07/22 10:41:29;;;;;;;5.10;4.60;;;;;;;;;;5070708;28;20526;-75
2021/07/22 10:43:55;;;;;;;5.00;4.43;;;;;;;;;;5070787;28;20416;-74
2021/07/22 10:46:21;;;;;;;4.80;4.40;;;;;;;;;;5068827;28;20484;-72
2021/07/22 10:48:48;;;;;;;6.00;4.73;;;;;;;;;;5079818;28;20984;-71
2021/07/22 10:51:13;;;;;;;5.03;4.53;;;;;;;;;;5068699;28;20480;-75
2021/07/22 10:53:44;;;;;;;4.80;4.23;;;;;;;;;;5070651;28;20418;-74
2021/07/22 10:56:10;;;;;;;4.93;4.53;;;;;;;;;;5070485;28;20805;-74
2021/07/22 10:58:36;;;;;;;6.77;4.87;;;;;;;;;;5069993;28;20493;-76
2021/07/22 11:01:03;;;;;;;5.23;4.83;;;;;;;;;;5070237;28;20775;-74
2021/07/22 11:06:02;;;;;;;5.40;5.00;;;;;;;;;;5069823;28;20500;-71
2021/07/22 11:08:29;;;;;;;4.80;4.40;;;;;;;;;;5069889;28;20792;-74
2021/07/22 11:11:01;;;;;;;5.27;3.87;;;;;;;;;;5069908;28;20414;-75
2021/07/22 11:13:36;;;;;;;4.97;4.50;;;;;;;;;;5069649;28;20434;-75
2021/07/22 11:16:02;;;;;;;4.50;4.20;;;;;;;;;;5069771;28;20410;-71
2021/07/22 11:18:44;;;;;;;4.97;4.13;;;;;;;;;;5069814;28;20450;-73
2021/07/22 11:21:13;;;;;;;4.57;4.17;;;;;;;;;;5069784;28;20411;-74
2021/07/22 11:23:40;;;;;;;4.47;4.10;;;;;;;;;;5069996;28;20879;-71
2021/07/22 11:26:06;;;;;;;4.20;3.90;;;;;;;;;;5069519;28;20497;-71
2021/07/22 11:28:32;;;;;;;7.00;4.77;;;;;;;;;;5069484;28;20464;-73
2021/07/22 11:30:59;;;;;;;4.53;4.13;;;;;;;;;;5069119;28;20757;-74
2021/07/22 11:33:25;;;;;;;3.90;3.60;;;;;;;;;;5069585;28;20442;-75
2021/07/22 11:35:58;;;;;;;4.43;4.03;;;;;;;;;;5069589;28;20425;-74
2021/07/22 11:38:25;;;;;;;4.50;4.10;;;;;;;;;;5069208;28;20418;-75
2021/07/22 11:40:51;;;;;;;4.33;3.93;;;;;;;;;;5069425;28;20429;-72
2021/07/22 11:43:36;;;;;;;4.23;3.83;;;;;;;;;;5069397;28;20438;-74
2021/07/22 11:46:02;;;;;;;4.60;4.00;;;;;;;;;;5058162;28;20431;-72
2021/07/22 11:48:28;;;;;;;4.60;4.13;;;;;;;;;;5079421;28;20414;-75
2021/07/22 11:51:01;;;;;;;4.77;4.37;;;;;;;;;;5069321;28;20429;-75
2021/07/22 11:53:27;;;;;;;4.80;4.23;;;;;;;;;;5069132;28;20426;-73
2021/07/22 11:55:53;;;;;;;4.63;4.23;;;;;;;;;;5069403;28;20426;-75
2021/07/22 11:58:19;;;;;;;4.47;4.07;;;;;;;;;;5068908;28;20418;-74
2021/07/22 12:00:45;;;;;;;3.80;3.50;;;;;;;;;;5069458;28;20468;-73
2021/07/22 12:03:11;;;;;;;3.63;3.33;;;;;;;;;;5071813;28;20469;-73
2021/07/22 12:05:37;;;;;;;3.83;3.53;;;;;;;;;;5069129;28;20912;-75
2021/07/22 12:08:16;;;;;;;3.80;3.50;;;;;;;;;;5068496;28;20422;-73
2021/07/22 12:10:43;;;;;;;3.43;3.13;;;;;;;;;;5069426;28;20444;-75
2021/07/22 12:13:09;;;;;;;3.70;3.40;;;;;;;;;;5069092;28;20845;-73
2021/07/22 12:15:36;;;;;;;4.30;3.63;;;;;;;;;;5069197;28;20787;-72
2021/07/22 12:18:02;;;;;;;4.00;3.60;;;;;;;;;;5068839;28;20421;-74
2021/07/22 12:20:29;;;;;;;3.90;3.60;;;;;;;;;;5069072;28;20532;-73
2021/07/22 12:22:55;;;;;;;3.70;3.40;;;;;;;;;;5068725;28;20442;-75
2021/07/22 12:25:21;;;;;;;5.40;3.40;;;;;;;;;;5069153;28;20423;-74
2021/07/22 12:27:50;;;;;;;3.40;3.10;;;;;;;;;;5068467;28;20450;-74
2021/07/22 12:30:17;;;;;;;4.20;3.57;;;;;;;;;;5069045;28;20421;-74
2021/07/22 12:32:49;;;;;;;3.73;3.33;;;;;;;;;;5068802;28;20426;-75
2021/07/22 12:35:27;;;;;;;4.00;3.60;;;;;;;;;;5068890;28;20411;-72
2021/07/22 12:38:01;;;;;;;3.90;3.30;;;;;;;;;;5067923;28;21010;-72
2021/07/22 12:40:44;;;;;;;3.80;3.30;;;;;;;;;;5068792;28;20646;-72
2021/07/22 12:43:14;;;;;;;3.77;3.47;;;;;;;;;;5072265;28;20458;-74
2021/07/22 12:45:41;;;;;;;4.10;3.70;;;;;;;;;;5072213;28;20418;-73
2021/07/22 12:48:08;;;;;;;3.57;3.27;;;;;;;;;;5064227;28;20406;-74
2021/07/22 12:50:35;;;;;;;3.60;3.30;;;;;;;;;;5073056;28;20418;-77
2021/07/22 12:53:03;;;;;;;3.83;3.53;;;;;;;;;;5072942;28;20442;-74
2021/07/22 12:55:38;;;;;;;3.37;2.90;;;;;;;;;;5072880;28;20774;-73
2021/07/22 12:58:04;;;;;;;4.20;3.80;;;;;;;;;;5072301;28;20444;-72
2021/07/22 13:00:30;;;;;;;3.47;3.17;;;;;;;;;;5073045;28;20469;-73
2021/07/22 13:02:58;;;;;;;3.53;3.10;;;;;;;;;;5072820;28;20437;-73
2021/07/22 13:05:24;;;;;;;4.20;3.53;;;;;;;;;;5072127;28;20453;-76
2021/07/22 13:07:50;;;;;;;6.13;5.63;;;;;;;;;;5071992;28;20410;-73
2021/07/22 13:10:16;;;;;;;4.80;4.40;;;;;;;;;;5072594;28;20410;-72
2021/07/22 13:12:43;;;;;;;4.80;4.43;;;;;;;;;;5072377;28;20465;-75
2021/07/22 13:15:09;;;;;;;4.00;3.70;;;;;;;;;;5072274;28;20410;-75
2021/07/22 13:17:41;;;;;;;4.63;3.53;;;;;;;;;;5072005;28;20774;-71
2021/07/22 13:20:13;;;;;;;4.50;3.63;;;;;;;;;;5072387;28;20462;-75
2021/07/22 13:22:39;;;;;;;3.93;3.50;;;;;;;;;;5072100;28;20855;-72
2021/07/22 13:25:05;;;;;;;4.20;3.80;;;;;;;;;;5072167;28;20950;-74
2021/07/22 13:27:35;;;;;;;5.57;4.30;;;;;;;;;;5073286;28;20498;-75
2021/07/22 13:30:01;;;;;;;4.30;4.00;;;;;;;;;;5072028;28;20442;-72
2021/07/22 13:32:28;;;;;;;4.47;4.03;;;;;;;;;;5071836;28;20592;-76
2021/07/22 13:34:54;;;;;;;4.97;3.63;;;;;;;;;;5072051;28;20421;-76
2021/07/22 13:37:20;;;;;;;4.20;3.70;;;;;;;;;;5071606;28;20496;-73
2021/07/22 13:39:46;;;;;;;3.40;2.87;;;;;;;;;;5071822;28;20458;-73
2021/07/22 13:42:12;;;;;;;4.60;4.00;;;;;;;;;;5071830;28;20999;-74
2021/07/22 13:44:38;;;;;;;5.63;4.00;;;;;;;;;;5071814;28;20908;-73
2021/07/22 13:47:04;;;;;;;3.63;3.33;;;;;;;;;;5069895;28;20433;-74
2021/07/22 13:49:30;;;;;;;4.13;3.50;;;;;;;;;;5077480;28;20419;-76
2021/07/22 13:51:56;;;;;;;4.20;3.17;;;;;;;;;;5071538;28;20468;-75
2021/07/22 13:54:22;;;;;;;5.90;2.77;;;;;;;;;;5070767;28;20540;-73
2021/07/22 13:56:48;;;;;;;4.47;2.80;;;;;;;;;;5071142;28;20419;-73
2021/07/22 13:59:14;;;;;;;5.33;3.13;;;;;;;;;;5071712;28;20462;-75
2021/07/22 14:01:40;;;;;;;4.10;2.83;;;;;;;;;;5073091;28;20449;-76
2021/07/22 14:04:07;;;;;;;4.20;2.60;;;;;;;;;;5071802;28;20415;-72
2021/07/22 14:06:33;;;;;;;6.47;3.17;;;;;;;;;;5071244;28;20433;-76
2021/07/22 14:08:59;;;;;;;3.43;3.10;;;;;;;;;;5071341;28;20500;-75
2021/07/22 14:11:25;;;;;;;7.20;3.10;;;;;;;;;;5071394;28;20433;-74
2021/07/22 14:13:51;;;;;;;3.17;2.67;;;;;;;;;;5071540;28;20410;-74
2021/07/22 14:16:17;;;;;;;3.70;2.73;;;;;;;;;;5069892;28;20788;-75
2021/07/22 14:18:43;;;;;;;3.13;2.43;;;;;;;;;;5071070;28;20462;-72
2021/07/22 14:21:09;;;;;;;4.57;3.07;;;;;;;;;;5071115;28;20489;-73
2021/07/22 14:23:35;;;;;;;5.23;3.27;;;;;;;;;;5065917;28;20414;-73
2021/07/22 14:26:01;;;;;;;4.60;3.27;;;;;;;;;;5070909;28;20406;-75
2021/07/22 14:28:27;;;;;;;3.67;2.60;;;;;;;;;;5070701;28;20414;-74
2021/07/22 14:30:53;;;;;;;4.03;3.00;;;;;;;;;;5070852;28;20414;-75
2021/07/22 14:33:19;;;;;;;3.47;3.17;;;;;;;;;;5070935;28;20427;-74
2021/07/22 14:35:45;;;;;;;3.47;2.60;;;;;;;;;;5070812;28;20414;-73
2021/07/22 14:38:11;;;;;;;3.47;3.20;;;;;;;;;;5070490;28;20434;-73
2021/07/22 14:40:37;;;;;;;4.70;2.90;;;;;;;;;;5070662;28;20465;-72
2021/07/22 14:43:03;;;;;;;4.13;3.50;;;;;;;;;;5070770;28;20532;-77